メインページ
METAR-TAF:

METAR-TAF

空港 :

ポンタ・デルガダ, アゾレス諸島, ポルトガル

ポンタ・デルガダ空港

緯度: 37-44N, 経度: 025-42W, 海抜: 71m

現時点の気象観測

当レポートは10分前の02:00(UTC)に作成
の風 12kt
気温 17°C
湿度 88%
気圧 1027 hPa
視程10km以上
高度1700ftの雲はほとんどない
高度4500ftの千切れ雲あり

METAR: LPPD 220200Z 18012KT 9999 FEW017 BKN045 17/15 Q1027

時間: 01:10 (02:10 UTC)

予報

当レポートは3時間10分前の23:00(UTC)に作成
予報は22日の 00時(UTC)から 22日の 24時(UTC)まで有効
南/南西の風 12kt
視程10km以上
高度1500ftの雲はほとんどない
高度4000ftの千切れ雲あり
確率 40% :
22日の 00時(UTC)から 22日の 24時(UTC)まで一時的に
視程: 6000m
高度600ftの雲は散在している
高度1200ftの千切れ雲あり
小雨, 霧雨

TAF: LPPD 212300Z 2200/2224 21012KT 9999 FEW015 BKN040 PROB40 TEMPO 2200/2224 6000 -RADZ SCT006 BKN012

4,000以上の空港の気象観測と天気予報(METAR報とTAF報)

利用可能な観測所は地図上に黄色い丸と赤い丸で示す。

丸の上にカーソルを重ねると観測所名を参照できる。

次にクリックすると気象観測と天気予報を参照できる。

マップの切り替え:黒色「×」印の緑ボタンをクリックして拡大、「-」印の緑ボタンをクリックして縮小、緑色の三角印をクリックして隣りの地図に切り替え


METAR-TAF: